VOMD

Details ICAO VOMD (IXM)
Name MADURAI
Region India
Timezone Asia/Kolkata (UTC+5.5)
Plans Departing 28
Arriving 19
Stats Elevation 459 ft / 140 m (AMSL)
Location 9.835570° 78.090406°
Runways 2
Magnetic Variation 1.662° W
Sunrise 2018-05-21 00:27:27 UTC / 2018-05-21 05:57:27 Local
Sunset 2018-05-21 13:03:49 UTC / 2018-05-21 18:33:49 Local
Advertisement - Login to hide

Runways

ID Width Length Bearing (true) Bearing (mag) Surface Threshold Offset Overrun Length
09 148 ft / 45 m 5,993 ft / 1,827 m 86.19° 87.85° Asphalt 0 ft / 0 m 190 ft / 58 m
13 148 ft / 45 m 4,795 ft / 1,462 m 126.57° 128.23° Concrete 0 ft / 0 m 0 ft / 0 m
27 148 ft / 45 m 5,993 ft / 1,827 m 266.19° 267.85° Asphalt 203 ft / 62 m 190 ft / 58 m
31 148 ft / 45 m 4,795 ft / 1,462 m 306.57° 308.23° Concrete 0 ft / 0 m 0 ft / 0 m

Map

Weather


0- 5 10 15 20 25 30 35+ Temperature / ° C

Clouds and Precipitation
Forecast for 2018-05-20 18:00 UTC. Updated 4 hours ago

Ground ~20,000 ft ~40,000 ft Winds

METAR

VOMD 202100Z 00000KT 4000 HZ SCT018 BKN100 28/23 Q1006 NOSIG

TAF

Not found

Frequencies

Tower 122.80 MHz TWR
Approach 122.80 MHz APP
Warning: Do not use this data for real-world aviation or navigation. No guarantee of current accuracy is given.